Latest Coastal Weather Observations for Melbourne (Olympic Park)

IDV60701

Issued at 2:25 pm EDT Saturday 25 October 2014 (issued every 10 minutes, with the page automatically refreshed every 10 minutes)

About coastal observations | Map of coastal stations | Coastal observations for VIC | Marine services | Other Formats
Station Details ID: 086338 Name: MELBOURNE (OLYMPIC PARK) Lat: -37.83 Lon: 144.98 Height: 7.53 m
Data from the previous 72 hours. | See also: Recent months at Melbourne (Olympic Park)
Date/Time
EDT
Temp

°C
Wind Pressure Rain
since 9am
mm
Weather Cloud Vis
km
Sea
Height
m
Swell
Dir
 
Speed
knots
Gust
knots
hPa Trend Height
m
Period
s
Dir
25/02:00pm 17.5 SW 5 9 1015.9 - 0.0 - - - - - - -
25/01:30pm 16.4 SW 6 9 1016.2 - 0.0 - - - - - - -
25/01:00pm 16.9 SSW 5 9 1016.3 - 0.0 - - - - - - -
25/12:30pm 16.6 WSW 5 8 1016.6 - 0.0 - - - - - - -
25/12:00pm 16.2 SSW 7 11 1017.1 - 0.0 - - - - - - -
25/11:30am 15.7 SSW 5 8 1017.4 - 0.0 - - - - - - -
25/11:00am 15.8 SSE 5 8 1017.7 - 0.0 - - - - - - -
25/10:30am 15.3 S 6 10 1017.7 - 0.0 - - - - - - -
25/10:00am 15.7 SSE 5 10 1017.6 - 0.0 - - - - - - -
25/09:30am 15.7 S 4 7 1017.5 - 0.0 - - - - - - -
25/09:00am 15.6 SSE 4 7 1017.5 - 0.0 - - - - - - -
25/08:30am 15.3 SSE 4 7 1017.7 - 0.0 - - - - - - -
25/08:00am 15.0 SSE 5 8 1017.6 - 0.0 - - - - - - -
25/07:30am 14.9 S 5 9 1017.3 - 0.0 - - - - - - -
25/07:00am 14.9 S 4 6 1017.1 - 0.0 - - - - - - -
25/06:30am 14.9 CALM 0 3 1016.9 - 0.0 - - - - - - -
25/06:00am 15.0 CALM 0 0 1016.7 - 0.0 - - - - - - -
25/05:30am 14.8 SSW 1 5 1016.7 - 0.0 - - - - - - -
25/05:00am 14.9 SSW 4 7 1016.4 - 0.0 - - - - - - -
25/04:30am 14.8 SSW 3 6 1016.2 - 0.0 - - - - - - -
25/04:00am 14.7 SSW 3 7 1016.3 - 0.0 - - - - - - -
25/03:30am 14.5 SW 4 7 1016.3 - 0.0 - - - - - - -
25/03:00am 14.3 SW 3 8 1016.4 - 0.0 - - - - - - -
25/02:30am 14.5 S 4 7 1016.5 - 0.0 - - - - - - -
25/02:00am 14.6 SSW 6 11 1016.5 - 0.0 - - - - - - -
25/01:30am 15.6 SSW 5 9 1016.6 - 0.0 - - - - - - -
25/01:00am 15.8 SSW 4 7 1016.6 - 0.0 - - - - - - -
25/12:30am 15.9 SSE 3 5 1016.5 - 0.0 - - - - - - -
25/12:00am 15.9 S 3 5 1016.6 - 0.0 - - - - - - -
 
Date/Time
EDT
Temp

°C
Wind Pressure Rain
since 9am
mm
Weather Cloud Vis
km
Sea
Height
m
Swell
Dir
 
Speed
knots
Gust
knots
hPa Trend Height
m
Period
s
Dir
24/11:30pm 15.7 S 4 7 1016.5 - 0.0 - - - - - - -
24/11:00pm 15.6 SSE 5 9 1016.5 - 0.0 - - - - - - -
24/10:30pm 15.5 SSE 5 11 1016.3 - 0.0 - - - - - - -
24/10:00pm 15.5 S 7 11 1015.8 - 0.0 - - - - - - -
24/09:30pm 15.6 SSW 8 14 1015.3 - 0.0 - - - - - - -
24/09:00pm 15.8 SSW 7 11 1014.4 - 0.0 - - - - - - -
24/08:30pm 15.7 S 7 14 1013.9 - 0.0 - - - - - - -
24/08:00pm 16.8 SSW 9 14 1013.0 - 0.0 - - - - - - -
24/07:30pm 18.0 SSW 7 14 1012.0 - 0.0 - - - - - - -
24/07:00pm 19.7 SSW 8 14 1011.3 - 0.0 - - - - - - -
24/06:30pm 23.5 SSW 7 13 1010.4 - 0.0 - - - - - - -
24/06:00pm 27.0 SSW 6 11 1009.7 - 0.0 - - - - - - -
24/05:30pm 28.6 SSW 6 11 1009.5 - 0.0 - - - - - - -
24/05:00pm 29.9 S 4 7 1009.3 - 0.0 - - - - - - -
24/04:30pm 30.1 S 1 3 1009.4 - 0.0 - - - - - - -
24/04:00pm 28.7 SSW 4 9 1009.7 - 0.0 - - - - - - -
24/03:30pm 27.2 S 7 10 1010.0 - 0.0 - - - - - - -
24/03:00pm 27.5 S 4 8 1009.9 - 0.0 - - - - - - -
24/02:30pm 25.9 SSW 7 14 1010.3 - 0.0 - - - - - - -
24/02:00pm 27.0 SSW 6 9 1010.4 - 0.0 - - - - - - -
24/01:30pm 27.1 S 2 5 1010.4 - 0.0 - - - - - - -
24/01:00pm 26.0 SSW 4 7 1010.7 - 0.0 - - - - - - -
24/12:30pm 25.6 S 3 6 1010.9 - 0.0 - - - - - - -
24/12:00pm 21.7 S 3 7 1011.3 - 0.0 - - - - - - -
24/11:30am 21.0 SSW 7 11 1011.5 - 0.0 - - - - - - -
24/11:00am 23.3 SW 3 5 1011.2 - 0.0 - - - - - - -
24/10:30am 22.3 N 5 9 1011.5 - 0.0 - - - - - - -
24/10:00am 21.3 CALM 0 4 1011.7 - 0.0 - - - - - - -
24/09:30am 19.4 NNE 1 4 1011.6 - 0.0 - - - - - - -
24/09:00am 17.8 NW 1 5 1012.1 - 0.0 - - - - - - -
24/08:30am 16.5 NNE 5 6 1012.3 - 0.0 - - - - - - -
24/08:00am 15.7 NE 5 7 1012.4 - 0.0 - - - - - - -
24/07:30am 15.4 NNW 4 6 1012.4 - 0.0 - - - - - - -
24/07:00am 15.4 N 1 6 1012.4 - 0.0 - - - - - - -
24/06:30am 15.3 N 2 5 1012.3 - 0.0 - - - - - - -
24/06:00am 15.2 N 4 7 1012.3 - 0.0 - - - - - - -
24/05:30am 15.3 NNE 5 7 1012.3 - 0.0 - - - - - - -
24/05:00am 15.5 NNW 3 4 1012.5 - 0.0 - - - - - - -
24/04:30am 15.4 N 1 5 1012.5 - 0.0 - - - - - - -
24/04:00am 15.6 N 2 5 1012.6 - 0.0 - - - - - - -
24/03:30am 15.4 N 3 6 1012.7 - 0.0 - - - - - - -
24/03:00am 15.5 CALM 0 0 1012.9 - 0.0 - - - - - - -
24/02:30am 15.3 NNW 3 6 1013.4 - 0.0 - - - - - - -
24/02:00am 15.2 NNW 5 7 1013.8 - 0.0 - - - - - - -
24/01:30am 15.2 NNW 6 9 1014.1 - 0.0 - - - - - - -
24/01:00am 15.4 NW 2 7 1014.4 - 0.0 - - - - - - -
24/12:30am 15.4 N 4 6 1014.5 - 0.0 - - - - - - -
24/12:00am 15.4 CALM 0 5 1014.9 - 0.0 - - - - - - -
 
Date/Time
EDT
Temp

°C
Wind Pressure Rain
since 9am
mm
Weather Cloud Vis
km
Sea
Height
m
Swell
Dir
 
Speed
knots
Gust
knots
hPa Trend Height
m
Period
s
Dir
23/11:30pm 15.2 CALM 0 0 1015.0 - 0.0 - - - - - - -
23/11:00pm 15.6 CALM 0 0 1015.1 - 0.0 - - - - - - -
23/10:30pm 16.1 CALM 0 0 1015.2 - 0.0 - - - - - - -
23/10:00pm 16.6 CALM 0 0 1015.4 - 0.0 - - - - - - -
23/09:30pm 17.1 SE 1 5 1015.2 - 0.0 - - - - - - -
23/09:00pm 17.4 SE 3 7 1015.0 - 0.0 - - - - - - -
23/08:30pm 17.8 SSE 4 7 1014.8 - 0.0 - - - - - - -
23/08:00pm 18.4 SSE 4 8 1014.7 - 0.0 - - - - - - -
23/07:30pm 19.1 SSE 5 10 1014.9 - 0.0 - - - - - - -
23/07:00pm 20.0 SSE 8 13 1014.8 - 0.0 - - - - - - -
23/06:30pm 20.9 SSE 7 14 1014.7 - 0.0 - - - - - - -
23/06:00pm 21.5 SSE 8 11 1014.8 - 0.0 - - - - - - -
23/05:30pm 22.0 SW 5 12 1014.9 - 0.0 - - - - - - -
23/05:00pm 19.8 WSW 7 11 1015.3 - 0.0 - - - - - - -
23/04:30pm 18.7 WSW 8 11 1015.8 - 0.0 - - - - - - -
23/04:00pm 18.0 SW 7 14 1016.2 - 0.0 - - - - - - -
23/03:30pm 18.0 SSW 7 11 1016.7 - 0.0 - - - - - - -
23/03:00pm 17.6 SW 7 11 1017.1 - 0.0 - - - - - - -
23/02:30pm 17.5 SW 6 11 1017.7 - 0.0 - - - - - - -
23/02:00pm 17.1 SSW 6 11 1018.0 - 0.0 - - - - - - -
23/01:30pm 16.4 SSW 6 11 1018.3 - 0.0 - - - - - - -
23/01:00pm 16.3 SSW 7 11 1018.9 - 0.0 - - - - - - -
23/12:30pm 15.7 SSW 6 9 1019.2 - 0.0 - - - - - - -
23/12:00pm 15.5 SSW 5 9 1019.6 - 0.0 - - - - - - -
23/11:30am 15.4 SSW 5 9 1019.8 - 0.0 - - - - - - -
23/11:00am 15.4 SSW 4 7 1020.2 - 0.0 - - - - - - -
23/10:30am 15.5 SSW 5 9 1020.3 - 0.0 - - - - - - -
23/10:00am 15.2 SSW 4 7 1020.3 - 0.0 - - - - - - -
23/09:30am 14.8 SSW 3 7 1020.6 - 0.0 - - - - - - -
23/09:00am 14.9 SSW 4 8 1020.5 - 0.0 - - - - - - -
23/08:30am 15.0 SSE 5 8 1020.5 - 0.0 - - - - - - -
23/08:00am 15.3 SSE 4 9 1020.2 - 0.0 - - - - - - -
23/07:30am 15.2 S 5 8 1020.1 - 0.0 - - - - - - -
23/07:00am 15.3 S 5 11 1019.7 - 0.0 - - - - - - -
23/06:30am 15.3 S 3 6 1019.5 - 0.0 - - - - - - -
23/06:00am 15.2 SSW 6 10 1019.2 - 0.0 - - - - - - -
23/05:30am 15.2 S 5 11 1018.8 - 0.0 - - - - - - -
23/05:00am 15.0 WSW 3 7 1018.6 - 0.0 - - - - - - -
23/04:30am 14.9 SW 4 8 1018.5 - 0.0 - - - - - - -
23/04:00am 14.9 SW 4 9 1018.4 - 0.0 - - - - - - -
23/03:30am 15.0 SSW 4 7 1018.7 - 0.0 - - - - - - -
23/03:00am 15.0 SSW 5 8 1019.1 - 0.0 - - - - - - -
23/02:30am 15.1 SSW 5 9 1019.2 - 0.0 - - - - - - -
23/02:00am 15.2 SW 6 11 1019.3 - 0.0 - - - - - - -
23/01:30am 15.7 SSW 5 11 1019.6 - 0.0 - - - - - - -
23/01:00am 15.5 SW 3 6 1018.8 - 0.0 - - - - - - -
23/12:30am 15.7 S 4 6 1018.9 - 0.0 - - - - - - -
23/12:00am 15.7 SSW 5 11 1019.1 - 0.0 - - - - - - -
 
Date/Time
EDT
Temp

°C
Wind Pressure Rain
since 9am
mm
Weather Cloud Vis
km
Sea
Height
m
Swell
Dir
 
Speed
knots
Gust
knots
hPa Trend Height
m
Period
s
Dir
22/11:30pm 15.5 SSW 7 11 1018.7 - 0.0 - - - - - - -
22/11:00pm 15.7 S 8 13 1018.6 - 0.0 - - - - - - -
22/10:30pm 16.6 SSW 8 16 1018.8 - 0.0 - - - - - - -
22/10:00pm 18.8 SSW 6 13 1018.4 - 0.0 - - - - - - -
22/09:30pm 19.6 SW 8 15 1018.0 - 0.0 - - - - - - -
22/09:00pm 20.9 SW 9 14 1016.9 - 0.0 - - - - - - -
22/08:55pm 21.5 SW 9 15 1016.8 - 0.0 - - - - - - -
22/08:30pm 26.5 WSW 5 9 1015.5 - 0.0 - - - - - - -
22/08:00pm 27.9 NNW 7 13 1014.7 - 0.0 - - - - - - -
22/07:30pm 28.8 N 8 12 1014.4 - 0.0 - - - - - - -
22/07:00pm 29.4 N 8 11 1013.9 - 0.0 - - - - - - -
22/06:30pm 29.9 N 10 15 1013.8 - 0.0 - - - - - - -
22/06:00pm 29.9 N 9 17 1014.1 - 0.0 - - - - - - -
22/05:30pm 29.8 N 11 17 1014.4 - 0.0 - - - - - - -
22/05:00pm 30.3 NNW 10 17 1014.5 - 0.0 - - - - - - -
22/04:30pm 30.2 N 10 16 1014.5 - 0.0 - - - - - - -
22/04:00pm 30.9 N 10 15 1014.7 - 0.0 - - - - - - -
22/03:30pm 31.3 NNW 10 18 1014.8 - 0.0 - - - - - - -
22/03:00pm 31.5 N 10 14 1015.2 - 0.0 - - - - - - -
22/02:30pm 31.4 N 9 15 1015.6 - 0.0 - - - - - - -

Other Formats:

Comma delimited format used in spreadsheet applications
http://www.bom.gov.au/fwo/IDV60701/IDV60701.95936.axf

JavaScript Object Notation format (JSON) in row-major order
http://www.bom.gov.au/fwo/IDV60701/IDV60701.95936.json